Aérodrome :
LOGIN :

S'inscrire | Disclaimer

   EN    FR    IT 

 










Légende :    VFR   VFR Marginal   IFR   IFR Intensif   IFR Très Intensif
Visi : 
Plafond : 
>= 8 km
>= 3000ft
5 à 8 km
1000 à 3000 ft
1500m à 5 km
500 à 1000 ft
800 à 1500m
200 à 500 ft
< 800m
< 200 ft
Symboles :   Orages  Brouillard  Fortes neiges  Fortes précipitations  Vent > 20 kt
SIGMETs :   Divers  Orages  Givrage  Turbulence  Onde Orograph.  Cendres Volcan.







- Altitude de l'aérodrome : 291 ft
- Code IATA : ORY
- Voir les cartes d'approche


LFPO - Paris-Orly

DERNIER METAR :
  • 240430Z 04008KT 3500 BR BKN008 08/06 Q1027 TEMPO 2500 BR BKN004

METARs EXPIRÉS :
  • 240400Z 04006KT 3500 BR BKN008 BKN032 08/06 Q1027 TEMPO 2500 BR BKN004
  • 240330Z 03007KT 3500 BR SCT007 BKN032 08/06 Q1027 TEMPO 2500 BR BKN004
  • 240300Z 01007KT 3500 BR SCT007 BKN032 08/07 Q1027 TEMPO 2500 BR BKN004
  • 240230Z 01008KT 4000 BR SCT008 BKN032 08/07 Q1027 TEMPO 2500 BR BKN004
  • 240200Z 01008KT 4500 BR SCT008 BKN032 08/07 Q1028 TEMPO 2500 BR BKN004

TAF AMD TAF LFPO
Valide du 24 à 01h jusqu'au 25 à 06h UTC


240152Z 2401/2506 01005KT 4000 BR BKN030
TEMPO 2401/2407 2500 BR BKN004
BECMG 2409/2411 9999 NSW SCT030
PROB30
TEMPO 2504/2506 2000 BR
ATIS : +33 1 49 75 65 80
Pas de NOTAMs connus pour ce terrain.



MET'MAP, la Météo Aéronautique d'un coup d'oeil ! - Copyright ORBIFLY Décembre 2007 - Disclaimer

ORBIFLY MET'MAP TEAM :

Programmation & Développement : Alexandra Zaïnal
Conception & Développement : Baudouin d'Aumeries
Co-Programmation & Développement : Marc-Olivier Méhu
Soutien technique & logistique : Manuel Goepfert

Contact : metmap@orbifly.com




SOURCES & CREDITS :

   NOAA